createdAt,value
2022-09-14T00:01:37.298Z,19.07
2022-09-14T00:04:07.444Z,19.03
2022-09-14T00:06:36.910Z,18.99
2022-09-14T00:09:07.326Z,18.97
2022-09-14T00:11:37.585Z,18.95
2022-09-14T00:14:06.850Z,18.92
2022-09-14T00:16:37.196Z,18.87
2022-09-14T00:19:07.470Z,18.84
2022-09-14T00:21:38.909Z,18.85
2022-09-14T00:24:08.492Z,18.82
2022-09-14T00:26:37.265Z,18.80
2022-09-14T00:29:06.109Z,18.77
2022-09-14T00:31:35.648Z,18.76
2022-09-14T00:34:04.945Z,18.73
2022-09-14T00:36:35.318Z,18.71
2022-09-14T00:39:05.413Z,18.69
2022-09-14T00:41:36.921Z,18.69
2022-09-14T00:44:07.687Z,18.68
2022-09-14T00:46:38.584Z,18.67
2022-09-14T00:49:11.634Z,18.67
2022-09-14T00:51:44.732Z,18.67
2022-09-14T00:54:14.177Z,18.70
2022-09-14T00:56:42.276Z,18.69
2022-09-14T00:59:16.938Z,18.68
2022-09-14T01:01:45.194Z,18.69
2022-09-14T01:04:13.409Z,18.69
2022-09-14T01:06:52.196Z,18.69
2022-09-14T01:09:32.147Z,18.70
2022-09-14T01:12:18.257Z,18.66
2022-09-14T01:14:52.470Z,18.64
2022-09-14T01:17:26.814Z,18.59
2022-09-14T01:20:19.975Z,18.56
2022-09-14T01:22:53.537Z,18.61
2022-09-14T01:25:55.124Z,18.52
2022-09-14T01:28:32.943Z,18.47
2022-09-14T01:31:04.530Z,18.43
2022-09-14T01:33:38.416Z,18.43
2022-09-14T01:36:10.284Z,18.41
2022-09-14T01:38:46.639Z,18.39
2022-09-14T01:41:17.996Z,18.41
2022-09-14T01:43:54.119Z,18.39
2022-09-14T01:46:29.851Z,18.38
2022-09-14T01:49:04.295Z,18.37
2022-09-14T01:51:37.642Z,18.34
2022-09-14T01:54:12.123Z,18.32
2022-09-14T01:56:44.494Z,18.25
2022-09-14T01:59:18.470Z,18.25
2022-09-14T02:01:55.036Z,18.25
2022-09-14T02:04:30.631Z,18.22
2022-09-14T02:06:59.238Z,18.21
2022-09-14T02:09:27.935Z,18.19
2022-09-14T02:12:00.778Z,18.17
2022-09-14T02:14:31.386Z,18.14
2022-09-14T02:17:00.243Z,18.10
2022-09-14T02:19:33.880Z,18.10
2022-09-14T02:22:02.201Z,18.09
2022-09-14T02:24:30.830Z,18.08
2022-09-14T02:27:00.984Z,18.07
2022-09-14T02:29:31.074Z,18.06
2022-09-14T02:32:08.873Z,18.05
2022-09-14T02:34:48.819Z,18.04
2022-09-14T02:37:21.228Z,18.06
2022-09-14T02:39:58.394Z,18.06
2022-09-14T02:42:37.242Z,18.09
2022-09-14T02:45:18.932Z,18.10
2022-09-14T02:47:55.979Z,18.12
2022-09-14T02:50:30.612Z,18.19
2022-09-14T02:53:06.076Z,18.21
2022-09-14T02:55:40.036Z,18.24
2022-09-14T02:58:09.919Z,18.28
2022-09-14T03:00:41.225Z,18.34
2022-09-14T03:03:11.655Z,18.36
2022-09-14T03:05:40.560Z,18.44
2022-09-14T03:08:10.316Z,18.47
2022-09-14T03:10:39.361Z,18.50
2022-09-14T03:13:07.670Z,18.55
2022-09-14T03:15:36.364Z,18.61
2022-09-14T03:18:10.009Z,18.64
2022-09-14T03:20:40.912Z,18.69
2022-09-14T03:23:10.871Z,18.76
2022-09-14T03:25:40.335Z,18.84
2022-09-14T03:28:09.610Z,18.89
2022-09-14T03:30:38.242Z,18.95
2022-09-14T03:33:08.029Z,18.99
2022-09-14T03:35:36.479Z,19.01
2022-09-14T03:38:04.760Z,18.99
2022-09-14T03:40:33.100Z,19.02
2022-09-14T03:43:01.452Z,19.03
2022-09-14T03:45:29.746Z,19.07
2022-09-14T03:47:58.026Z,19.10
2022-09-14T03:50:27.706Z,19.14
2022-09-14T03:52:56.302Z,19.21
2022-09-14T03:55:24.568Z,19.21
2022-09-14T03:57:55.405Z,19.22
2022-09-14T04:00:24.228Z,19.23
2022-09-14T04:02:53.010Z,19.24
2022-09-14T04:05:22.052Z,19.25
2022-09-14T04:07:51.875Z,19.27
2022-09-14T04:10:20.261Z,19.26
2022-09-14T04:12:48.587Z,19.25
2022-09-14T04:15:16.930Z,19.23
2022-09-14T04:17:45.239Z,19.20
2022-09-14T04:20:13.823Z,19.16
2022-09-14T04:22:42.173Z,19.12
2022-09-14T04:25:11.914Z,19.12
2022-09-14T04:27:40.259Z,19.12
2022-09-14T04:30:09.284Z,19.12
2022-09-14T04:32:37.642Z,19.11
2022-09-14T04:35:06.382Z,19.11
2022-09-14T04:37:35.069Z,19.13
2022-09-14T04:40:03.748Z,19.14
2022-09-14T04:42:33.497Z,19.17
2022-09-14T04:45:02.180Z,19.20
2022-09-14T04:47:31.127Z,19.20
2022-09-14T04:49:59.430Z,19.18
2022-09-14T04:52:27.759Z,19.20
2022-09-14T04:54:56.217Z,19.23
2022-09-14T04:57:24.613Z,19.27
2022-09-14T04:59:54.276Z,19.29
2022-09-14T05:02:22.673Z,19.38
2022-09-14T05:04:51.274Z,19.42
2022-09-14T05:07:19.645Z,19.43
2022-09-14T05:09:47.842Z,19.44
2022-09-14T05:12:16.151Z,19.46
2022-09-14T05:14:44.394Z,19.47
2022-09-14T05:17:14.515Z,19.51
2022-09-14T05:19:42.846Z,19.51
2022-09-14T05:22:11.103Z,19.53
2022-09-14T05:24:39.475Z,19.56
2022-09-14T05:27:07.722Z,19.61
2022-09-14T05:29:36.290Z,19.68
2022-09-14T05:32:04.754Z,19.72
2022-09-14T05:34:34.890Z,19.77
2022-09-14T05:37:03.146Z,19.82
2022-09-14T05:39:31.559Z,19.86
2022-09-14T05:41:59.843Z,19.89
2022-09-14T05:44:28.070Z,19.92
2022-09-14T05:46:56.430Z,19.96
2022-09-14T05:49:25.346Z,20.02
2022-09-14T05:51:55.034Z,20.07
2022-09-14T05:54:23.295Z,20.13
2022-09-14T05:56:51.767Z,20.16
2022-09-14T05:59:19.999Z,20.19
2022-09-14T06:01:48.328Z,20.21
2022-09-14T06:04:16.724Z,20.24
2022-09-14T06:07:01.396Z,20.25
2022-09-14T06:09:34.641Z,20.28
2022-09-14T06:12:03.249Z,20.33
2022-09-14T06:14:31.549Z,20.40
2022-09-14T06:16:59.819Z,20.44
2022-09-14T06:19:28.252Z,20.50
2022-09-14T06:21:56.448Z,20.58
2022-09-14T06:24:25.111Z,20.63
2022-09-14T06:26:54.702Z,20.72
2022-09-14T06:29:22.961Z,20.78
2022-09-14T06:31:51.263Z,20.83
2022-09-14T06:34:19.530Z,20.87
2022-09-14T06:36:48.311Z,20.93
2022-09-14T06:39:16.753Z,20.99
2022-09-14T06:41:45.053Z,21.05
2022-09-14T06:44:21.776Z,21.13
2022-09-14T06:46:50.061Z,21.20
2022-09-14T06:49:20.860Z,21.28
2022-09-14T06:51:49.400Z,21.35
2022-09-14T06:54:19.124Z,21.42
2022-09-14T06:56:48.019Z,21.54
2022-09-14T06:59:17.747Z,21.64
2022-09-14T07:01:49.753Z,21.75
2022-09-14T07:04:18.330Z,21.77
2022-09-14T07:06:48.211Z,21.80
2022-09-14T07:09:17.497Z,21.81
2022-09-14T07:11:46.201Z,21.83
2022-09-14T07:14:14.524Z,21.85
2022-09-14T07:16:42.880Z,21.91
2022-09-14T07:19:14.373Z,21.96
2022-09-14T07:21:43.519Z,22.02
2022-09-14T07:24:14.942Z,22.12
2022-09-14T07:26:44.038Z,22.21
2022-09-14T07:29:14.105Z,22.38
2022-09-14T07:31:44.038Z,22.53
2022-09-14T07:34:14.195Z,22.63
2022-09-14T07:36:43.296Z,22.72
2022-09-14T07:39:13.426Z,22.78
2022-09-14T07:41:41.848Z,22.79
2022-09-14T07:44:14.509Z,22.71
2022-09-14T07:46:44.839Z,22.70
2022-09-14T07:49:15.687Z,22.70
2022-09-14T07:51:44.259Z,22.75
2022-09-14T07:54:14.396Z,22.71
2022-09-14T07:56:43.536Z,22.75
2022-09-14T08:02:01.581Z,22.95
2022-09-14T08:04:31.390Z,23.09
2022-09-14T08:06:59.696Z,23.23
2022-09-14T08:09:28.070Z,23.44
2022-09-14T08:11:57.259Z,23.66
2022-09-14T08:14:25.561Z,23.79
2022-09-14T08:16:53.877Z,23.83
2022-09-14T08:19:22.276Z,23.80
2022-09-14T08:21:52.260Z,23.73
2022-09-14T08:24:22.319Z,23.72
2022-09-14T08:26:51.131Z,23.73
2022-09-14T08:29:20.564Z,23.77
2022-09-14T08:31:51.747Z,23.72
2022-09-14T08:34:20.774Z,23.71
2022-09-14T08:36:49.118Z,23.77
2022-09-14T08:39:19.415Z,23.89
2022-09-14T08:41:58.906Z,23.99
2022-09-14T08:44:31.421Z,24.15
2022-09-14T08:47:05.073Z,24.27
2022-09-14T08:49:47.862Z,24.35
2022-09-14T08:52:28.401Z,24.46
2022-09-14T08:55:00.235Z,24.55
2022-09-14T08:57:34.606Z,24.51
2022-09-14T09:00:10.052Z,24.57
2022-09-14T09:03:01.522Z,24.60
2022-09-14T09:05:40.005Z,24.54
2022-09-14T09:08:18.344Z,24.56
2022-09-14T09:10:49.084Z,24.64
2022-09-14T09:13:21.638Z,24.63
2022-09-14T09:15:52.363Z,24.63
2022-09-14T09:18:25.207Z,24.54
2022-09-14T09:20:56.064Z,24.51
2022-09-14T09:23:25.750Z,24.57
2022-09-14T09:26:01.705Z,24.61
2022-09-14T09:28:30.919Z,24.56
2022-09-14T09:31:05.056Z,24.47
2022-09-14T09:33:53.475Z,24.34
2022-09-14T09:36:24.641Z,24.41
2022-09-14T09:38:52.936Z,24.48
2022-09-14T09:41:25.932Z,24.55
2022-09-14T09:44:07.194Z,24.57
2022-09-14T09:46:38.385Z,24.68
2022-09-14T09:49:18.183Z,24.80
2022-09-14T09:51:46.916Z,25.03
2022-09-14T09:54:25.302Z,25.28
2022-09-14T09:56:58.422Z,25.47
2022-09-14T09:59:36.504Z,25.61
2022-09-14T10:02:29.255Z,25.57
2022-09-14T10:05:00.934Z,25.77
2022-09-14T10:07:31.192Z,25.82
2022-09-14T10:10:01.984Z,25.91
2022-09-14T10:12:32.538Z,26.40
2022-09-14T10:15:12.478Z,27.06
2022-09-14T10:17:41.053Z,27.11
2022-09-14T10:20:22.898Z,26.99
2022-09-14T10:22:51.571Z,26.95
2022-09-14T10:25:25.368Z,26.84
2022-09-14T10:28:01.362Z,26.94
2022-09-14T10:30:34.639Z,27.22
2022-09-14T10:33:05.071Z,27.67
2022-09-14T10:35:44.160Z,27.97
2022-09-14T10:38:26.737Z,28.02
2022-09-14T10:41:04.546Z,28.11
2022-09-14T10:43:45.319Z,28.19
2022-09-14T10:46:20.666Z,28.32
2022-09-14T10:49:14.945Z,28.20
2022-09-14T10:51:54.246Z,28.06
2022-09-14T10:54:47.744Z,28.16
2022-09-14T10:57:26.754Z,28.20
2022-09-14T10:59:59.353Z,28.11
2022-09-14T11:02:51.691Z,27.76
2022-09-14T11:05:24.434Z,27.73
2022-09-14T11:08:16.359Z,27.65
2022-09-14T11:10:57.916Z,27.50
2022-09-14T11:13:41.312Z,27.32
2022-09-14T11:16:27.251Z,27.16
2022-09-14T11:19:06.542Z,27.20
2022-09-14T11:21:42.784Z,27.28
2022-09-14T11:24:18.824Z,27.38
2022-09-14T11:26:51.955Z,27.45
2022-09-14T11:29:24.554Z,27.49
2022-09-14T11:32:19.338Z,27.47
2022-09-14T11:34:54.983Z,27.71
2022-09-14T11:37:31.407Z,28.27
2022-09-14T11:40:08.360Z,29.01
2022-09-14T11:42:42.092Z,29.38
2022-09-14T11:45:18.454Z,30.00
2022-09-14T11:47:54.689Z,30.49
2022-09-14T11:50:26.636Z,30.82
2022-09-14T11:53:03.758Z,30.65
2022-09-14T11:55:32.702Z,30.66
2022-09-14T11:58:02.203Z,30.83
2022-09-14T12:01:06.200Z,30.72
2022-09-14T12:03:55.592Z,30.72
2022-09-14T12:06:49.022Z,30.63
2022-09-14T12:09:44.590Z,30.15
2022-09-14T12:12:35.137Z,30.27
2022-09-14T12:15:11.991Z,30.51
2022-09-14T12:17:41.737Z,30.08
2022-09-14T12:20:43.464Z,29.59
2022-09-14T12:23:27.812Z,29.23
2022-09-14T12:26:19.846Z,29.33
2022-09-14T12:28:50.578Z,29.43
2022-09-14T12:32:01.916Z,30.00
2022-09-14T12:34:32.271Z,30.49
2022-09-14T12:37:29.859Z,30.55
2022-09-14T12:40:36.409Z,30.33
2022-09-14T12:43:47.261Z,29.79
2022-09-14T12:46:38.766Z,29.26
2022-09-14T12:49:30.753Z,28.88
2022-09-14T12:52:05.539Z,28.68
2022-09-14T12:54:51.376Z,28.73
2022-09-14T12:57:31.272Z,28.94
2022-09-14T13:00:07.498Z,28.83
2022-09-14T13:03:08.148Z,28.54
2022-09-14T13:05:36.544Z,28.35
2022-09-14T13:08:11.106Z,28.29
2022-09-14T13:10:46.741Z,28.43
2022-09-14T13:13:18.861Z,28.53
2022-09-14T13:15:53.470Z,28.46
2022-09-14T13:18:35.876Z,28.32
2022-09-14T13:21:17.843Z,28.34
2022-09-14T13:23:46.619Z,28.29
2022-09-14T13:26:20.660Z,28.08
2022-09-14T13:28:51.738Z,27.97
2022-09-14T13:31:26.801Z,27.66
2022-09-14T13:33:57.231Z,27.34
2022-09-14T13:36:27.667Z,27.15
2022-09-14T13:38:57.216Z,27.21
2022-09-14T13:41:26.988Z,27.28
2022-09-14T13:43:57.127Z,27.28
2022-09-14T13:46:27.889Z,27.22
2022-09-14T13:48:56.931Z,27.07
2022-09-14T13:51:27.427Z,26.95
2022-09-14T13:53:57.644Z,26.93
2022-09-14T13:56:31.378Z,26.92
2022-09-14T13:59:16.825Z,26.95
2022-09-14T14:01:52.972Z,27.12
2022-09-14T14:04:34.855Z,27.23
2022-09-14T14:07:06.612Z,27.34
2022-09-14T14:09:44.208Z,27.35
2022-09-14T14:12:24.542Z,27.32
2022-09-14T14:14:57.808Z,27.28
2022-09-14T14:17:37.954Z,27.45
2022-09-14T14:20:35.452Z,27.37
2022-09-14T14:23:20.092Z,27.10
2022-09-14T14:25:52.043Z,27.04
2022-09-14T14:28:26.602Z,27.12
2022-09-14T14:30:55.853Z,27.28
2022-09-14T14:33:24.602Z,27.42
2022-09-14T14:35:54.494Z,27.54
2022-09-14T14:38:23.882Z,27.54
2022-09-14T14:40:55.176Z,27.56
2022-09-14T14:43:27.372Z,27.59
2022-09-14T14:45:57.641Z,27.66
2022-09-14T14:48:26.313Z,27.67
2022-09-14T14:50:55.710Z,27.65
2022-09-14T14:53:24.479Z,27.63
2022-09-14T14:55:53.866Z,27.64
2022-09-14T14:58:24.983Z,27.67
2022-09-14T15:00:53.330Z,27.54
2022-09-14T15:03:21.688Z,27.43
2022-09-14T15:05:50.534Z,27.40
2022-09-14T15:08:20.982Z,27.34
2022-09-14T15:10:49.730Z,27.21
2022-09-14T15:13:18.105Z,27.12
2022-09-14T15:15:47.954Z,27.09
2022-09-14T15:18:16.206Z,27.08
2022-09-14T15:20:44.519Z,27.13
2022-09-14T15:23:14.223Z,27.08
2022-09-14T15:25:42.598Z,26.89
2022-09-14T15:28:10.777Z,26.94
2022-09-14T15:30:39.951Z,26.91
2022-09-14T15:33:09.731Z,26.86
2022-09-14T15:35:39.079Z,26.83
2022-09-14T15:38:07.791Z,26.69
2022-09-14T15:40:36.320Z,26.56
2022-09-14T15:43:04.992Z,26.46
2022-09-14T15:45:34.230Z,26.49
2022-09-14T15:48:03.227Z,26.54
2022-09-14T15:50:32.920Z,26.51
2022-09-14T15:53:02.839Z,26.43
2022-09-14T15:55:31.282Z,26.41
2022-09-14T15:57:59.633Z,26.37
2022-09-14T16:00:28.074Z,26.23
2022-09-14T16:02:56.284Z,26.05
2022-09-14T16:05:24.794Z,25.98
2022-09-14T16:07:55.906Z,25.96
2022-09-14T16:10:25.742Z,25.89
2022-09-14T16:12:55.414Z,25.80
2022-09-14T16:15:24.108Z,25.74
2022-09-14T16:17:53.301Z,25.67
2022-09-14T16:20:21.935Z,25.57
2022-09-14T16:22:51.212Z,25.46
2022-09-14T16:25:20.972Z,25.38
2022-09-14T16:27:50.109Z,25.33
2022-09-14T16:30:18.383Z,25.30
2022-09-14T16:32:46.644Z,25.27
2022-09-14T16:35:15.197Z,25.19
2022-09-14T16:37:43.422Z,25.16
2022-09-14T16:40:13.193Z,25.10
2022-09-14T16:42:42.946Z,25.00
2022-09-14T16:45:11.519Z,25.01
2022-09-14T16:47:39.815Z,25.00
2022-09-14T16:50:08.412Z,24.95
2022-09-14T16:52:36.706Z,24.95
2022-09-14T16:55:05.703Z,24.89
2022-09-14T16:57:33.954Z,24.80
2022-09-14T17:00:07.115Z,24.75
2022-09-14T17:02:35.521Z,24.70
2022-09-14T17:05:03.951Z,24.63
2022-09-14T17:07:32.194Z,24.60
2022-09-14T17:10:00.523Z,24.51
2022-09-14T17:12:28.852Z,24.42
2022-09-14T17:14:57.188Z,24.33
2022-09-14T17:17:26.934Z,24.21
2022-09-14T17:19:58.295Z,24.08
2022-09-14T17:22:26.542Z,23.97
2022-09-14T17:24:54.806Z,23.85
2022-09-14T17:27:23.383Z,23.76
2022-09-14T17:29:53.117Z,23.67
2022-09-14T17:32:21.423Z,23.60
2022-09-14T17:34:52.217Z,23.52
2022-09-14T17:37:20.500Z,23.44
2022-09-14T17:39:48.961Z,23.35
2022-09-14T17:42:17.250Z,23.27
2022-09-14T17:44:45.529Z,23.18
2022-09-14T17:47:13.812Z,23.11
2022-09-14T17:49:42.203Z,23.05
2022-09-14T17:52:11.810Z,22.99
2022-09-14T17:54:42.433Z,22.90
2022-09-14T17:57:10.783Z,22.83
2022-09-14T17:59:39.043Z,22.76
2022-09-14T18:02:07.861Z,22.68
2022-09-14T18:04:36.186Z,22.61
2022-09-14T18:07:06.228Z,22.53
2022-09-14T18:09:36.107Z,22.42
2022-09-14T18:12:04.775Z,22.35
2022-09-14T18:14:33.346Z,22.26
2022-09-14T18:17:01.619Z,22.18
2022-09-14T18:19:29.921Z,22.09
2022-09-14T18:21:58.751Z,21.98
2022-09-14T18:24:27.045Z,21.84
2022-09-14T18:26:57.341Z,21.78
2022-09-14T18:29:25.767Z,21.67
2022-09-14T18:31:54.665Z,21.57
2022-09-14T18:34:23.595Z,21.48
2022-09-14T18:36:52.944Z,21.40
2022-09-14T18:39:21.225Z,21.32
2022-09-14T18:41:52.015Z,21.24
2022-09-14T18:44:22.021Z,21.16
2022-09-14T18:46:51.201Z,21.08
2022-09-14T18:49:19.664Z,20.98
2022-09-14T18:51:47.869Z,20.89
2022-09-14T18:54:16.123Z,20.81
2022-09-14T18:56:44.437Z,20.70
2022-09-14T18:59:16.569Z,20.60
2022-09-14T19:01:46.506Z,20.50
2022-09-14T19:04:15.928Z,20.42
2022-09-14T19:06:44.737Z,20.35
2022-09-14T19:09:13.711Z,20.26
2022-09-14T19:11:42.195Z,20.17
2022-09-14T19:14:12.635Z,20.13
2022-09-14T19:16:42.267Z,20.10
2022-09-14T19:19:15.135Z,20.03
2022-09-14T19:21:44.263Z,19.97
2022-09-14T19:24:14.028Z,19.92
2022-09-14T19:26:45.487Z,19.90
2022-09-14T19:29:15.466Z,19.88
2022-09-14T19:31:44.157Z,19.87
2022-09-14T19:34:13.940Z,19.87
2022-09-14T19:36:42.335Z,19.85
2022-09-14T19:39:10.985Z,19.82
2022-09-14T19:41:41.765Z,19.80
2022-09-14T19:44:10.480Z,19.79
2022-09-14T19:46:39.894Z,19.76
2022-09-14T19:49:08.831Z,19.75
2022-09-14T19:51:38.802Z,19.71
2022-09-14T19:54:07.167Z,19.68
2022-09-14T19:56:35.499Z,19.68
2022-09-14T19:59:06.215Z,19.67
2022-09-14T20:01:36.537Z,19.61
2022-09-14T20:04:06.495Z,19.55
2022-09-14T20:06:36.557Z,19.47
2022-09-14T20:09:08.872Z,19.43
2022-09-14T20:11:38.721Z,19.43
2022-09-14T20:14:09.485Z,19.38
2022-09-14T20:16:39.784Z,19.31
2022-09-14T20:19:11.445Z,19.27
2022-09-14T20:21:41.552Z,19.25
2022-09-14T20:24:16.730Z,19.24
2022-09-14T20:26:46.811Z,19.28
2022-09-14T20:29:16.389Z,19.27
2022-09-14T20:31:45.121Z,19.29
2022-09-14T20:34:14.040Z,19.28
2022-09-14T20:36:42.479Z,19.29
2022-09-14T20:39:12.405Z,19.28
2022-09-14T20:41:41.252Z,19.28
2022-09-14T20:44:10.267Z,19.25
2022-09-14T20:46:39.959Z,19.24
2022-09-14T20:49:11.444Z,19.23
2022-09-14T20:51:40.437Z,19.21
2022-09-14T20:54:10.961Z,19.20
2022-09-14T20:56:41.076Z,19.17
2022-09-14T20:59:12.591Z,19.23
2022-09-14T21:01:42.565Z,19.27
2022-09-14T21:04:12.454Z,19.27
2022-09-14T21:06:46.322Z,19.31
2022-09-14T21:09:16.867Z,19.35
2022-09-14T21:11:47.673Z,19.36
2022-09-14T21:14:17.534Z,19.35
2022-09-14T21:16:47.586Z,19.31
2022-09-14T21:19:19.768Z,19.30
2022-09-14T21:21:49.352Z,19.36
2022-09-14T21:24:18.931Z,19.39
2022-09-14T21:26:48.915Z,19.46
2022-09-14T21:29:20.435Z,19.52
2022-09-14T21:31:49.763Z,19.54
2022-09-14T21:34:18.480Z,19.55
2022-09-14T21:36:49.158Z,19.59
2022-09-14T21:39:21.628Z,19.62
2022-09-14T21:41:57.244Z,19.65
2022-09-14T21:44:30.191Z,19.70
2022-09-14T21:46:58.671Z,19.69
2022-09-14T21:49:26.974Z,19.70
2022-09-14T21:51:55.665Z,19.69
2022-09-14T21:54:24.128Z,19.62
2022-09-14T21:56:54.538Z,19.61
2022-09-14T21:59:24.180Z,19.56
2022-09-14T22:01:53.017Z,19.52
2022-09-14T22:04:23.233Z,19.47
2022-09-14T22:06:53.251Z,19.44
2022-09-14T22:09:24.388Z,19.46
2022-09-14T22:11:54.320Z,19.44
2022-09-14T22:14:25.086Z,19.40
2022-09-14T22:16:53.949Z,19.42
2022-09-14T22:19:27.498Z,19.37
2022-09-14T22:21:56.663Z,19.37
2022-09-14T22:24:33.481Z,19.30
2022-09-14T22:27:07.456Z,19.22
2022-09-14T22:29:36.050Z,19.20
2022-09-14T22:32:11.240Z,19.17
2022-09-14T22:34:41.754Z,19.07
2022-09-14T22:37:10.501Z,19.05
2022-09-14T22:39:38.865Z,18.99
2022-09-14T22:42:08.878Z,18.96
2022-09-14T22:44:37.181Z,18.97
2022-09-14T22:47:05.573Z,18.94
2022-09-14T22:49:33.931Z,18.95
2022-09-14T22:52:02.388Z,18.97
2022-09-14T22:54:30.729Z,18.92
2022-09-14T22:56:58.991Z,18.95
2022-09-14T22:59:28.697Z,18.92
2022-09-14T23:01:57.077Z,18.95
2022-09-14T23:04:27.420Z,18.94
2022-09-14T23:06:55.689Z,18.94
2022-09-14T23:09:24.022Z,18.94
2022-09-14T23:11:53.092Z,18.95
2022-09-14T23:14:21.488Z,18.93
2022-09-14T23:16:51.245Z,18.84
2022-09-14T23:19:20.089Z,18.83
2022-09-14T23:21:48.949Z,18.85
2022-09-14T23:24:17.293Z,18.87
2022-09-14T23:26:45.645Z,18.84
2022-09-14T23:29:16.997Z,18.87
2022-09-14T23:31:45.713Z,18.88
2022-09-14T23:34:15.421Z,18.94
2022-09-14T23:36:43.730Z,18.94
2022-09-14T23:39:12.072Z,18.94
2022-09-14T23:41:40.831Z,18.95
2022-09-14T23:44:13.788Z,18.99
2022-09-14T23:46:42.322Z,18.97
2022-09-14T23:49:12.392Z,19.00
2022-09-14T23:51:42.681Z,19.01
2022-09-14T23:54:11.254Z,19.03
2022-09-14T23:56:39.687Z,19.06
2022-09-14T23:59:08.682Z,19.07
